sensor_id;sensor_type;location;lat;lon;timestamp;P1;durP1;ratioP1;P2;durP2;ratioP2
25327;SDS011;13279;51.300;12.394;2023-03-15T00:01:19;7.27;;;1.97;;
25327;SDS011;13279;51.300;12.394;2023-03-15T00:03:48;10.13;;;2.20;;
25327;SDS011;13279;51.300;12.394;2023-03-15T00:06:16;4.03;;;1.77;;
25327;SDS011;13279;51.300;12.394;2023-03-15T00:08:43;10.20;;;2.20;;
25327;SDS011;13279;51.300;12.394;2023-03-15T00:11:12;12.60;;;1.93;;
25327;SDS011;13279;51.300;12.394;2023-03-15T00:13:41;11.53;;;2.87;;
25327;SDS011;13279;51.300;12.394;2023-03-15T00:16:10;11.07;;;2.13;;
25327;SDS011;13279;51.300;12.394;2023-03-15T00:18:41;10.67;;;1.90;;
25327;SDS011;13279;51.300;12.394;2023-03-15T00:21:09;16.47;;;2.30;;
25327;SDS011;13279;51.300;12.394;2023-03-15T00:23:37;6.33;;;1.97;;
25327;SDS011;13279;51.300;12.394;2023-03-15T00:26:04;11.00;;;1.90;;
25327;SDS011;13279;51.300;12.394;2023-03-15T00:28:32;7.00;;;1.80;;
25327;SDS011;13279;51.300;12.394;2023-03-15T00:31:06;6.37;;;2.23;;
25327;SDS011;13279;51.300;12.394;2023-03-15T00:33:38;11.87;;;1.90;;
25327;SDS011;13279;51.300;12.394;2023-03-15T00:36:06;5.73;;;1.87;;
25327;SDS011;13279;51.300;12.394;2023-03-15T00:38:36;11.47;;;2.13;;
25327;SDS011;13279;51.300;12.394;2023-03-15T00:41:05;10.03;;;2.63;;
25327;SDS011;13279;51.300;12.394;2023-03-15T00:43:34;8.80;;;1.77;;
25327;SDS011;13279;51.300;12.394;2023-03-15T00:46:02;16.63;;;2.23;;
25327;SDS011;13279;51.300;12.394;2023-03-15T00:48:32;10.53;;;2.07;;
25327;SDS011;13279;51.300;12.394;2023-03-15T00:51:01;15.63;;;2.27;;
25327;SDS011;13279;51.300;12.394;2023-03-15T00:53:29;9.43;;;1.90;;
25327;SDS011;13279;51.300;12.394;2023-03-15T00:55:57;12.03;;;1.80;;
25327;SDS011;13279;51.300;12.394;2023-03-15T00:58:29;7.37;;;1.70;;
25327;SDS011;13279;51.300;12.394;2023-03-15T01:00:56;6.50;;;1.43;;
25327;SDS011;13279;51.300;12.394;2023-03-15T01:03:26;11.47;;;1.47;;
25327;SDS011;13279;51.300;12.394;2023-03-15T01:05:54;12.97;;;1.93;;
25327;SDS011;13279;51.300;12.394;2023-03-15T01:08:22;5.73;;;1.73;;
25327;SDS011;13279;51.300;12.394;2023-03-15T01:10:49;6.13;;;1.47;;
25327;SDS011;13279;51.300;12.394;2023-03-15T01:13:17;10.53;;;2.43;;
25327;SDS011;13279;51.300;12.394;2023-03-15T01:15:45;7.93;;;1.47;;
25327;SDS011;13279;51.300;12.394;2023-03-15T01:18:13;11.33;;;1.90;;
25327;SDS011;13279;51.300;12.394;2023-03-15T01:20:43;13.17;;;1.87;;
25327;SDS011;13279;51.300;12.394;2023-03-15T01:23:10;8.43;;;1.70;;
25327;SDS011;13279;51.300;12.394;2023-03-15T01:25:38;12.50;;;2.43;;
25327;SDS011;13279;51.300;12.394;2023-03-15T01:28:06;6.57;;;1.60;;
25327;SDS011;13279;51.300;12.394;2023-03-15T01:30:34;12.57;;;1.90;;
25327;SDS011;13279;51.300;12.394;2023-03-15T01:33:01;12.60;;;1.60;;
25327;SDS011;13279;51.300;12.394;2023-03-15T01:35:29;11.07;;;2.00;;
25327;SDS011;13279;51.300;12.394;2023-03-15T01:37:57;9.90;;;1.60;;
25327;SDS011;13279;51.300;12.394;2023-03-15T01:40:25;11.13;;;1.73;;
25327;SDS011;13279;51.300;12.394;2023-03-15T01:43:10;9.07;;;1.90;;
25327;SDS011;13279;51.300;12.394;2023-03-15T01:46:01;8.07;;;1.83;;
25327;SDS011;13279;51.300;12.394;2023-03-15T01:48:43;9.33;;;1.60;;
25327;SDS011;13279;51.300;12.394;2023-03-15T01:51:19;10.03;;;1.83;;
25327;SDS011;13279;51.300;12.394;2023-03-15T01:53:52;8.27;;;1.67;;
25327;SDS011;13279;51.300;12.394;2023-03-15T01:56:23;6.10;;;1.97;;
25327;SDS011;13279;51.300;12.394;2023-03-15T01:58:53;12.73;;;1.50;;
25327;SDS011;13279;51.300;12.394;2023-03-15T02:01:23;11.93;;;1.60;;
25327;SDS011;13279;51.300;12.394;2023-03-15T02:03:51;14.10;;;2.17;;
25327;SDS011;13279;51.300;12.394;2023-03-15T02:06:32;7.33;;;1.73;;
25327;SDS011;13279;51.300;12.394;2023-03-15T02:09:03;10.90;;;1.77;;
25327;SDS011;13279;51.300;12.394;2023-03-15T02:11:38;10.37;;;1.90;;
25327;SDS011;13279;51.300;12.394;2023-03-15T02:14:09;4.27;;;1.60;;
25327;SDS011;13279;51.300;12.394;2023-03-15T02:16:40;5.50;;;1.40;;
25327;SDS011;13279;51.300;12.394;2023-03-15T02:19:16;11.13;;;1.73;;
25327;SDS011;13279;51.300;12.394;2023-03-15T02:21:54;21.93;;;1.93;;
25327;SDS011;13279;51.300;12.394;2023-03-15T02:24:31;5.10;;;1.07;;
25327;SDS011;13279;51.300;12.394;2023-03-15T02:27:05;6.07;;;1.23;;
25327;SDS011;13279;51.300;12.394;2023-03-15T02:29:34;8.53;;;1.47;;
25327;SDS011;13279;51.300;12.394;2023-03-15T02:32:01;9.30;;;2.00;;
25327;SDS011;13279;51.300;12.394;2023-03-15T02:34:29;3.20;;;1.57;;
25327;SDS011;13279;51.300;12.394;2023-03-15T02:36:57;6.83;;;1.37;;
25327;SDS011;13279;51.300;12.394;2023-03-15T02:39:25;5.27;;;1.60;;
25327;SDS011;13279;51.300;12.394;2023-03-15T02:41:53;13.30;;;1.50;;
25327;SDS011;13279;51.300;12.394;2023-03-15T02:44:27;8.17;;;1.67;;
25327;SDS011;13279;51.300;12.394;2023-03-15T02:47:00;9.47;;;1.40;;
25327;SDS011;13279;51.300;12.394;2023-03-15T02:49:31;6.87;;;1.67;;
25327;SDS011;13279;51.300;12.394;2023-03-15T02:52:05;10.67;;;1.67;;
25327;SDS011;13279;51.300;12.394;2023-03-15T02:54:34;8.23;;;2.30;;
25327;SDS011;13279;51.300;12.394;2023-03-15T02:57:01;3.90;;;1.47;;
25327;SDS011;13279;51.300;12.394;2023-03-15T02:59:30;8.53;;;1.30;;
25327;SDS011;13279;51.300;12.394;2023-03-15T03:01:57;8.03;;;1.20;;
25327;SDS011;13279;51.300;12.394;2023-03-15T03:04:26;3.73;;;1.70;;
25327;SDS011;13279;51.300;12.394;2023-03-15T03:06:54;10.70;;;2.33;;
25327;SDS011;13279;51.300;12.394;2023-03-15T03:09:26;9.13;;;1.93;;
25327;SDS011;13279;51.300;12.394;2023-03-15T03:11:54;4.40;;;1.20;;
25327;SDS011;13279;51.300;12.394;2023-03-15T03:14:21;4.33;;;1.03;;
25327;SDS011;13279;51.300;12.394;2023-03-15T03:16:49;4.90;;;1.23;;
25327;SDS011;13279;51.300;12.394;2023-03-15T03:19:18;7.10;;;1.67;;
25327;SDS011;13279;51.300;12.394;2023-03-15T03:21:50;8.33;;;1.57;;
25327;SDS011;13279;51.300;12.394;2023-03-15T03:24:18;9.50;;;1.30;;
25327;SDS011;13279;51.300;12.394;2023-03-15T03:26:46;8.63;;;1.43;;
25327;SDS011;13279;51.300;12.394;2023-03-15T03:29:15;7.70;;;1.67;;
25327;SDS011;13279;51.300;12.394;2023-03-15T03:31:45;8.00;;;1.33;;
25327;SDS011;13279;51.300;12.394;2023-03-15T03:34:13;4.87;;;1.07;;
25327;SDS011;13279;51.300;12.394;2023-03-15T03:36:42;9.97;;;2.07;;
25327;SDS011;13279;51.300;12.394;2023-03-15T03:39:13;6.27;;;2.27;;
25327;SDS011;13279;51.300;12.394;2023-03-15T03:41:43;14.03;;;1.70;;
25327;SDS011;13279;51.300;12.394;2023-03-15T03:44:11;6.73;;;1.53;;
25327;SDS011;13279;51.300;12.394;2023-03-15T03:46:40;7.93;;;1.43;;
25327;SDS011;13279;51.300;12.394;2023-03-15T03:49:08;13.70;;;1.63;;
25327;SDS011;13279;51.300;12.394;2023-03-15T03:51:36;8.83;;;2.00;;
25327;SDS011;13279;51.300;12.394;2023-03-15T03:54:04;5.53;;;1.27;;
25327;SDS011;13279;51.300;12.394;2023-03-15T03:56:32;6.97;;;2.00;;
25327;SDS011;13279;51.300;12.394;2023-03-15T03:58:59;11.37;;;1.73;;
25327;SDS011;13279;51.300;12.394;2023-03-15T04:01:39;9.83;;;2.30;;
25327;SDS011;13279;51.300;12.394;2023-03-15T04:04:09;4.13;;;1.47;;
25327;SDS011;13279;51.300;12.394;2023-03-15T04:06:38;4.57;;;1.27;;
25327;SDS011;13279;51.300;12.394;2023-03-15T04:09:12;6.63;;;1.57;;
25327;SDS011;13279;51.300;12.394;2023-03-15T04:11:42;5.33;;;1.23;;
25327;SDS011;13279;51.300;12.394;2023-03-15T04:14:10;6.00;;;1.53;;
25327;SDS011;13279;51.300;12.394;2023-03-15T04:16:41;9.73;;;1.47;;
25327;SDS011;13279;51.300;12.394;2023-03-15T04:19:10;6.30;;;2.40;;
25327;SDS011;13279;51.300;12.394;2023-03-15T04:21:39;10.93;;;2.03;;
25327;SDS011;13279;51.300;12.394;2023-03-15T04:24:33;7.63;;;1.83;;
25327;SDS011;13279;51.300;12.394;2023-03-15T04:27:11;17.47;;;1.40;;
25327;SDS011;13279;51.300;12.394;2023-03-15T04:29:58;7.00;;;1.40;;
25327;SDS011;13279;51.300;12.394;2023-03-15T04:32:37;11.27;;;1.73;;
25327;SDS011;13279;51.300;12.394;2023-03-15T04:35:34;11.43;;;1.60;;
25327;SDS011;13279;51.300;12.394;2023-03-15T04:38:29;8.17;;;1.60;;
25327;SDS011;13279;51.300;12.394;2023-03-15T04:41:22;4.80;;;1.50;;
25327;SDS011;13279;51.300;12.394;2023-03-15T04:44:03;6.03;;;1.77;;
25327;SDS011;13279;51.300;12.394;2023-03-15T04:46:54;2.33;;;1.43;;
25327;SDS011;13279;51.300;12.394;2023-03-15T04:49:37;4.57;;;1.50;;
25327;SDS011;13279;51.300;12.394;2023-03-15T04:52:19;9.23;;;1.57;;
25327;SDS011;13279;51.300;12.394;2023-03-15T04:55:04;3.70;;;1.43;;
25327;SDS011;13279;51.300;12.394;2023-03-15T04:57:59;6.83;;;1.33;;
25327;SDS011;13279;51.300;12.394;2023-03-15T05:00:32;4.90;;;1.20;;
25327;SDS011;13279;51.300;12.394;2023-03-15T05:03:10;7.77;;;1.73;;
25327;SDS011;13279;51.300;12.394;2023-03-15T05:05:56;5.80;;;1.63;;
25327;SDS011;13279;51.300;12.394;2023-03-15T05:08:42;17.93;;;2.97;;
25327;SDS011;13279;51.300;12.394;2023-03-15T05:11:30;7.53;;;1.83;;
25327;SDS011;13279;51.300;12.394;2023-03-15T05:14:09;5.17;;;1.53;;
25327;SDS011;13279;51.300;12.394;2023-03-15T05:16:36;12.70;;;1.90;;
25327;SDS011;13279;51.300;12.394;2023-03-15T05:19:14;9.67;;;1.50;;
25327;SDS011;13279;51.300;12.394;2023-03-15T05:21:42;11.30;;;1.57;;
25327;SDS011;13279;51.300;12.394;2023-03-15T05:24:21;10.57;;;1.67;;
25327;SDS011;13279;51.300;12.394;2023-03-15T05:27:07;3.40;;;1.27;;
25327;SDS011;13279;51.300;12.394;2023-03-15T05:30:01;4.53;;;1.83;;
25327;SDS011;13279;51.300;12.394;2023-03-15T05:32:59;12.53;;;1.83;;
25327;SDS011;13279;51.300;12.394;2023-03-15T05:36:01;23.17;;;2.47;;
25327;SDS011;13279;51.300;12.394;2023-03-15T05:38:48;16.23;;;2.30;;
25327;SDS011;13279;51.300;12.394;2023-03-15T05:41:25;14.43;;;1.97;;
25327;SDS011;13279;51.300;12.394;2023-03-15T05:44:13;9.43;;;1.47;;
25327;SDS011;13279;51.300;12.394;2023-03-15T05:47:02;5.87;;;1.77;;
25327;SDS011;13279;51.300;12.394;2023-03-15T05:49:49;8.43;;;1.70;;
25327;SDS011;13279;51.300;12.394;2023-03-15T05:52:38;7.77;;;1.33;;
25327;SDS011;13279;51.300;12.394;2023-03-15T05:55:29;11.30;;;1.63;;
25327;SDS011;13279;51.300;12.394;2023-03-15T05:58:15;10.50;;;2.77;;
25327;SDS011;13279;51.300;12.394;2023-03-15T06:01:00;2.67;;;1.37;;
25327;SDS011;13279;51.300;12.394;2023-03-15T06:03:52;20.57;;;2.07;;
25327;SDS011;13279;51.300;12.394;2023-03-15T06:06:25;5.50;;;1.83;;
25327;SDS011;13279;51.300;12.394;2023-03-15T06:08:53;7.87;;;1.97;;
25327;SDS011;13279;51.300;12.394;2023-03-15T06:11:21;10.40;;;1.43;;
25327;SDS011;13279;51.300;12.394;2023-03-15T06:13:49;8.43;;;1.57;;
25327;SDS011;13279;51.300;12.394;2023-03-15T06:16:30;10.03;;;2.10;;
25327;SDS011;13279;51.300;12.394;2023-03-15T06:19:02;19.80;;;1.67;;
25327;SDS011;13279;51.300;12.394;2023-03-15T06:21:30;8.63;;;2.13;;
25327;SDS011;13279;51.300;12.394;2023-03-15T06:23:59;4.53;;;1.03;;
25327;SDS011;13279;51.300;12.394;2023-03-15T06:26:26;8.43;;;1.83;;
25327;SDS011;13279;51.300;12.394;2023-03-15T06:28:59;7.50;;;1.93;;
25327;SDS011;13279;51.300;12.394;2023-03-15T06:31:27;10.50;;;1.47;;
25327;SDS011;13279;51.300;12.394;2023-03-15T06:34:01;9.87;;;2.10;;
25327;SDS011;13279;51.300;12.394;2023-03-15T06:36:30;16.10;;;3.57;;
25327;SDS011;13279;51.300;12.394;2023-03-15T06:38:57;12.47;;;1.83;;
25327;SDS011;13279;51.300;12.394;2023-03-15T06:41:25;8.63;;;2.00;;
25327;SDS011;13279;51.300;12.394;2023-03-15T06:43:59;6.90;;;2.00;;
25327;SDS011;13279;51.300;12.394;2023-03-15T06:46:27;6.70;;;1.30;;
25327;SDS011;13279;51.300;12.394;2023-03-15T06:48:54;20.70;;;3.17;;
25327;SDS011;13279;51.300;12.394;2023-03-15T06:51:25;6.83;;;1.77;;
25327;SDS011;13279;51.300;12.394;2023-03-15T06:53:53;11.93;;;2.00;;
25327;SDS011;13279;51.300;12.394;2023-03-15T06:56:20;5.07;;;1.57;;
25327;SDS011;13279;51.300;12.394;2023-03-15T06:58:48;8.10;;;1.70;;
25327;SDS011;13279;51.300;12.394;2023-03-15T07:01:15;11.47;;;1.73;;
25327;SDS011;13279;51.300;12.394;2023-03-15T07:03:43;8.40;;;2.07;;
25327;SDS011;13279;51.300;12.394;2023-03-15T07:06:10;9.37;;;2.00;;
25327;SDS011;13279;51.300;12.394;2023-03-15T07:08:39;9.23;;;1.73;;
25327;SDS011;13279;51.300;12.394;2023-03-15T07:11:06;10.20;;;1.87;;
25327;SDS011;13279;51.300;12.394;2023-03-15T07:13:34;5.83;;;2.03;;
25327;SDS011;13279;51.300;12.394;2023-03-15T07:16:01;17.17;;;2.90;;
25327;SDS011;13279;51.300;12.394;2023-03-15T07:18:30;10.03;;;2.33;;
25327;SDS011;13279;51.300;12.394;2023-03-15T07:20:59;6.80;;;2.13;;
25327;SDS011;13279;51.300;12.394;2023-03-15T07:23:31;15.43;;;2.50;;
25327;SDS011;13279;51.300;12.394;2023-03-15T07:26:00;11.43;;;2.00;;
25327;SDS011;13279;51.300;12.394;2023-03-15T07:28:27;13.20;;;2.27;;
25327;SDS011;13279;51.300;12.394;2023-03-15T07:30:55;10.13;;;2.23;;
25327;SDS011;13279;51.300;12.394;2023-03-15T07:33:24;8.17;;;3.20;;
25327;SDS011;13279;51.300;12.394;2023-03-15T07:35:53;20.20;;;3.17;;
25327;SDS011;13279;51.300;12.394;2023-03-15T07:38:21;11.90;;;2.87;;
25327;SDS011;13279;51.300;12.394;2023-03-15T07:40:49;15.57;;;2.90;;
25327;SDS011;13279;51.300;12.394;2023-03-15T07:43:18;20.57;;;3.40;;
25327;SDS011;13279;51.300;12.394;2023-03-15T07:45:49;11.40;;;2.83;;
25327;SDS011;13279;51.300;12.394;2023-03-15T07:48:17;10.47;;;2.97;;
25327;SDS011;13279;51.300;12.394;2023-03-15T07:50:44;9.63;;;2.80;;
25327;SDS011;13279;51.300;12.394;2023-03-15T07:53:12;12.30;;;3.37;;
25327;SDS011;13279;51.300;12.394;2023-03-15T07:55:39;17.90;;;3.57;;
25327;SDS011;13279;51.300;12.394;2023-03-15T07:58:07;17.77;;;2.67;;
25327;SDS011;13279;51.300;12.394;2023-03-15T08:00:36;13.47;;;2.60;;
25327;SDS011;13279;51.300;12.394;2023-03-15T08:03:04;10.90;;;2.97;;
25327;SDS011;13279;51.300;12.394;2023-03-15T08:05:31;13.27;;;2.50;;
25327;SDS011;13279;51.300;12.394;2023-03-15T08:07:59;10.27;;;3.20;;
25327;SDS011;13279;51.300;12.394;2023-03-15T08:10:26;19.37;;;2.97;;
25327;SDS011;13279;51.300;12.394;2023-03-15T08:12:53;6.63;;;2.00;;
25327;SDS011;13279;51.300;12.394;2023-03-15T08:15:21;10.57;;;2.63;;
25327;SDS011;13279;51.300;12.394;2023-03-15T08:17:50;12.00;;;1.83;;
25327;SDS011;13279;51.300;12.394;2023-03-15T08:20:18;12.27;;;2.70;;
25327;SDS011;13279;51.300;12.394;2023-03-15T08:22:53;14.30;;;2.47;;
25327;SDS011;13279;51.300;12.394;2023-03-15T08:25:22;13.80;;;3.50;;
25327;SDS011;13279;51.300;12.394;2023-03-15T08:27:50;12.97;;;2.63;;
25327;SDS011;13279;51.300;12.394;2023-03-15T08:30:18;5.33;;;2.30;;
25327;SDS011;13279;51.300;12.394;2023-03-15T08:32:47;9.73;;;2.33;;
25327;SDS011;13279;51.300;12.394;2023-03-15T08:35:19;8.77;;;2.60;;
25327;SDS011;13279;51.300;12.394;2023-03-15T08:37:47;11.33;;;3.20;;
25327;SDS011;13279;51.300;12.394;2023-03-15T08:40:17;21.30;;;2.70;;
25327;SDS011;13279;51.300;12.394;2023-03-15T08:42:49;6.57;;;2.33;;
25327;SDS011;13279;51.300;12.394;2023-03-15T08:45:16;12.30;;;2.80;;
25327;SDS011;13279;51.300;12.394;2023-03-15T08:47:45;10.60;;;2.50;;
25327;SDS011;13279;51.300;12.394;2023-03-15T08:50:13;6.60;;;2.57;;
25327;SDS011;13279;51.300;12.394;2023-03-15T08:52:45;15.90;;;2.53;;
25327;SDS011;13279;51.300;12.394;2023-03-15T08:55:12;12.00;;;2.63;;
25327;SDS011;13279;51.300;12.394;2023-03-15T08:57:39;29.50;;;4.57;;
25327;SDS011;13279;51.300;12.394;2023-03-15T09:00:08;13.57;;;2.87;;
25327;SDS011;13279;51.300;12.394;2023-03-15T09:02:44;9.27;;;2.20;;
25327;SDS011;13279;51.300;12.394;2023-03-15T09:05:13;7.47;;;2.27;;
25327;SDS011;13279;51.300;12.394;2023-03-15T09:07:41;15.20;;;2.37;;
25327;SDS011;13279;51.300;12.394;2023-03-15T09:10:10;19.20;;;2.77;;
25327;SDS011;13279;51.300;12.394;2023-03-15T09:12:40;6.97;;;2.70;;
25327;SDS011;13279;51.300;12.394;2023-03-15T09:15:08;9.30;;;2.97;;
25327;SDS011;13279;51.300;12.394;2023-03-15T09:17:36;9.27;;;2.77;;
25327;SDS011;13279;51.300;12.394;2023-03-15T09:20:04;6.37;;;2.23;;
25327;SDS011;13279;51.300;12.394;2023-03-15T09:22:39;8.93;;;2.40;;
25327;SDS011;13279;51.300;12.394;2023-03-15T09:25:06;11.07;;;2.40;;
25327;SDS011;13279;51.300;12.394;2023-03-15T09:27:35;7.67;;;2.50;;
25327;SDS011;13279;51.300;12.394;2023-03-15T09:30:03;10.57;;;2.87;;
25327;SDS011;13279;51.300;12.394;2023-03-15T09:32:31;8.23;;;2.73;;
25327;SDS011;13279;51.300;12.394;2023-03-15T09:35:00;5.13;;;3.37;;
25327;SDS011;13279;51.300;12.394;2023-03-15T09:37:28;12.67;;;2.93;;
25327;SDS011;13279;51.300;12.394;2023-03-15T09:39:56;4.97;;;2.57;;
25327;SDS011;13279;51.300;12.394;2023-03-15T09:42:24;12.07;;;2.80;;
25327;SDS011;13279;51.300;12.394;2023-03-15T09:45:03;7.53;;;2.37;;
25327;SDS011;13279;51.300;12.394;2023-03-15T09:47:38;5.53;;;2.37;;
25327;SDS011;13279;51.300;12.394;2023-03-15T09:50:13;8.93;;;1.87;;
25327;SDS011;13279;51.300;12.394;2023-03-15T09:52:47;7.60;;;2.37;;
25327;SDS011;13279;51.300;12.394;2023-03-15T09:55:18;8.00;;;1.77;;
25327;SDS011;13279;51.300;12.394;2023-03-15T09:57:49;5.93;;;2.07;;
25327;SDS011;13279;51.300;12.394;2023-03-15T10:00:22;3.33;;;1.77;;
25327;SDS011;13279;51.300;12.394;2023-03-15T10:02:56;14.73;;;2.83;;
25327;SDS011;13279;51.300;12.394;2023-03-15T10:05:34;6.03;;;2.57;;
25327;SDS011;13279;51.300;12.394;2023-03-15T10:08:10;6.97;;;3.60;;
25327;SDS011;13279;51.300;12.394;2023-03-15T10:10:39;3.77;;;1.77;;
25327;SDS011;13279;51.300;12.394;2023-03-15T10:13:23;4.00;;;2.10;;
25327;SDS011;13279;51.300;12.394;2023-03-15T10:16:12;7.23;;;1.73;;
25327;SDS011;13279;51.300;12.394;2023-03-15T10:18:49;3.13;;;1.50;;
25327;SDS011;13279;51.300;12.394;2023-03-15T10:21:30;1.67;;;1.20;;
25327;SDS011;13279;51.300;12.394;2023-03-15T10:24:08;2.30;;;1.23;;
25327;SDS011;13279;51.300;12.394;2023-03-15T10:26:42;1.67;;;1.50;;
25327;SDS011;13279;51.300;12.394;2023-03-15T10:29:11;4.00;;;1.47;;
25327;SDS011;13279;51.300;12.394;2023-03-15T10:31:44;6.40;;;1.60;;
25327;SDS011;13279;51.300;12.394;2023-03-15T10:34:13;5.93;;;1.57;;
25327;SDS011;13279;51.300;12.394;2023-03-15T10:36:46;3.67;;;1.47;;
25327;SDS011;13279;51.300;12.394;2023-03-15T10:39:19;4.20;;;1.80;;
25327;SDS011;13279;51.300;12.394;2023-03-15T10:41:47;1.67;;;1.57;;
25327;SDS011;13279;51.300;12.394;2023-03-15T10:44:17;2.07;;;1.60;;
25327;SDS011;13279;51.300;12.394;2023-03-15T10:46:59;2.30;;;1.63;;
25327;SDS011;13279;51.300;12.394;2023-03-15T10:49:32;4.67;;;1.90;;
25327;SDS011;13279;51.300;12.394;2023-03-15T10:52:00;5.13;;;1.73;;
25327;SDS011;13279;51.300;12.394;2023-03-15T10:54:30;3.20;;;1.63;;
25327;SDS011;13279;51.300;12.394;2023-03-15T10:56:59;4.53;;;1.50;;
25327;SDS011;13279;51.300;12.394;2023-03-15T10:59:30;3.47;;;1.67;;
25327;SDS011;13279;51.300;12.394;2023-03-15T11:02:19;4.60;;;1.87;;
25327;SDS011;13279;51.300;12.394;2023-03-15T11:04:49;1.87;;;1.30;;
25327;SDS011;13279;51.300;12.394;2023-03-15T11:07:25;3.10;;;1.27;;
25327;SDS011;13279;51.300;12.394;2023-03-15T11:09:55;1.50;;;1.40;;
25327;SDS011;13279;51.300;12.394;2023-03-15T11:12:27;4.83;;;1.57;;
25327;SDS011;13279;51.300;12.394;2023-03-15T11:14:56;1.17;;;0.97;;
25327;SDS011;13279;51.300;12.394;2023-03-15T11:17:28;2.93;;;1.40;;
25327;SDS011;13279;51.300;12.394;2023-03-15T11:20:00;1.37;;;1.20;;
25327;SDS011;13279;51.300;12.394;2023-03-15T11:22:38;3.20;;;1.10;;
25327;SDS011;13279;51.300;12.394;2023-03-15T11:25:10;5.07;;;1.30;;
25327;SDS011;13279;51.300;12.394;2023-03-15T11:27:38;1.47;;;1.10;;
25327;SDS011;13279;51.300;12.394;2023-03-15T11:30:11;3.90;;;1.60;;
25327;SDS011;13279;51.300;12.394;2023-03-15T11:32:41;2.40;;;1.40;;
25327;SDS011;13279;51.300;12.394;2023-03-15T11:35:11;6.60;;;1.63;;
25327;SDS011;13279;51.300;12.394;2023-03-15T11:37:41;3.03;;;1.20;;
25327;SDS011;13279;51.300;12.394;2023-03-15T11:40:15;4.57;;;1.10;;
25327;SDS011;13279;51.300;12.394;2023-03-15T11:42:47;8.57;;;1.20;;
25327;SDS011;13279;51.300;12.394;2023-03-15T11:45:23;10.20;;;1.43;;
25327;SDS011;13279;51.300;12.394;2023-03-15T11:48:20;2.00;;;1.13;;
25327;SDS011;13279;51.300;12.394;2023-03-15T11:50:52;2.93;;;0.77;;
25327;SDS011;13279;51.300;12.394;2023-03-15T11:53:20;4.60;;;1.40;;
25327;SDS011;13279;51.300;12.394;2023-03-15T11:55:50;1.43;;;1.30;;
25327;SDS011;13279;51.300;12.394;2023-03-15T11:58:26;1.80;;;0.93;;
25327;SDS011;13279;51.300;12.394;2023-03-15T12:00:59;2.03;;;1.10;;
25327;SDS011;13279;51.300;12.394;2023-03-15T12:03:33;1.87;;;1.10;;
25327;SDS011;13279;51.300;12.394;2023-03-15T12:12:05;1.40;;;0.90;;
25327;SDS011;13279;51.300;12.394;2023-03-15T12:15:04;5.40;;;1.10;;
25327;SDS011;13279;51.300;12.394;2023-03-15T12:17:44;4.60;;;1.10;;
25327;SDS011;13279;51.300;12.394;2023-03-15T12:20:20;1.20;;;0.80;;
25327;SDS011;13279;51.300;12.394;2023-03-15T12:23:02;0.70;;;0.70;;
25327;SDS011;13279;51.300;12.394;2023-03-15T12:25:43;3.10;;;0.73;;
25327;SDS011;13279;51.300;12.394;2023-03-15T12:28:18;3.00;;;0.90;;
25327;SDS011;13279;51.300;12.394;2023-03-15T12:30:51;1.00;;;0.80;;
25327;SDS011;13279;51.300;12.394;2023-03-15T12:33:21;4.33;;;0.80;;
25327;SDS011;13279;51.300;12.394;2023-03-15T12:35:51;1.50;;;0.83;;
25327;SDS011;13279;51.300;12.394;2023-03-15T12:38:30;3.50;;;0.80;;
25327;SDS011;13279;51.300;12.394;2023-03-15T12:41:05;1.90;;;0.90;;
25327;SDS011;13279;51.300;12.394;2023-03-15T12:43:34;3.03;;;0.87;;
25327;SDS011;13279;51.300;12.394;2023-03-15T12:46:03;3.40;;;0.80;;
25327;SDS011;13279;51.300;12.394;2023-03-15T12:48:32;4.03;;;1.00;;
25327;SDS011;13279;51.300;12.394;2023-03-15T12:51:02;1.10;;;0.90;;
25327;SDS011;13279;51.300;12.394;2023-03-15T12:53:35;0.83;;;0.63;;
25327;SDS011;13279;51.300;12.394;2023-03-15T12:56:20;2.67;;;0.80;;
25327;SDS011;13279;51.300;12.394;2023-03-15T12:58:57;2.87;;;0.67;;
25327;SDS011;13279;51.300;12.394;2023-03-15T13:01:29;2.40;;;1.00;;
25327;SDS011;13279;51.300;12.394;2023-03-15T13:03:57;2.30;;;0.83;;
25327;SDS011;13279;51.300;12.394;2023-03-15T13:06:31;1.00;;;0.77;;
25327;SDS011;13279;51.300;12.394;2023-03-15T13:09:11;3.93;;;0.73;;
25327;SDS011;13279;51.300;12.394;2023-03-15T13:11:49;1.67;;;0.70;;
25327;SDS011;13279;51.300;12.394;2023-03-15T13:14:26;3.27;;;0.77;;
25327;SDS011;13279;51.300;12.394;2023-03-15T13:17:01;1.40;;;0.60;;
25327;SDS011;13279;51.300;12.394;2023-03-15T13:19:34;7.77;;;0.60;;
25327;SDS011;13279;51.300;12.394;2023-03-15T13:22:11;2.23;;;0.80;;
25327;SDS011;13279;51.300;12.394;2023-03-15T13:24:47;2.60;;;1.10;;
25327;SDS011;13279;51.300;12.394;2023-03-15T13:27:23;2.60;;;0.60;;
25327;SDS011;13279;51.300;12.394;2023-03-15T13:30:01;1.03;;;0.90;;
25327;SDS011;13279;51.300;12.394;2023-03-15T13:32:35;6.77;;;1.20;;
25327;SDS011;13279;51.300;12.394;2023-03-15T13:35:10;1.93;;;1.00;;
25327;SDS011;13279;51.300;12.394;2023-03-15T13:37:41;2.10;;;1.00;;
25327;SDS011;13279;51.300;12.394;2023-03-15T13:40:11;3.13;;;1.00;;
25327;SDS011;13279;51.300;12.394;2023-03-15T13:42:40;1.63;;;0.80;;
25327;SDS011;13279;51.300;12.394;2023-03-15T13:45:12;4.80;;;1.00;;
25327;SDS011;13279;51.300;12.394;2023-03-15T13:47:41;0.80;;;0.80;;
25327;SDS011;13279;51.300;12.394;2023-03-15T13:50:14;2.63;;;0.70;;
25327;SDS011;13279;51.300;12.394;2023-03-15T13:52:44;2.30;;;1.23;;
25327;SDS011;13279;51.300;12.394;2023-03-15T13:55:14;2.43;;;0.87;;
25327;SDS011;13279;51.300;12.394;2023-03-15T13:57:45;1.67;;;0.90;;
25327;SDS011;13279;51.300;12.394;2023-03-15T14:00:16;1.37;;;0.90;;
25327;SDS011;13279;51.300;12.394;2023-03-15T14:02:47;1.57;;;1.00;;
25327;SDS011;13279;51.300;12.394;2023-03-15T14:05:19;2.87;;;0.90;;
25327;SDS011;13279;51.300;12.394;2023-03-15T14:07:55;1.00;;;0.90;;
25327;SDS011;13279;51.300;12.394;2023-03-15T14:10:28;1.83;;;1.00;;
25327;SDS011;13279;51.300;12.394;2023-03-15T14:12:57;3.33;;;1.27;;
25327;SDS011;13279;51.300;12.394;2023-03-15T14:15:42;6.70;;;1.53;;
25327;SDS011;13279;51.300;12.394;2023-03-15T14:18:15;3.17;;;0.90;;
25327;SDS011;13279;51.300;12.394;2023-03-15T14:20:45;2.63;;;1.10;;
25327;SDS011;13279;51.300;12.394;2023-03-15T14:23:21;2.33;;;0.93;;
25327;SDS011;13279;51.300;12.394;2023-03-15T14:25:50;1.50;;;1.00;;
25327;SDS011;13279;51.300;12.394;2023-03-15T14:28:19;3.30;;;1.00;;
25327;SDS011;13279;51.300;12.394;2023-03-15T14:30:53;2.67;;;0.80;;
25327;SDS011;13279;51.300;12.394;2023-03-15T14:33:24;0.97;;;0.80;;
25327;SDS011;13279;51.300;12.394;2023-03-15T14:35:57;3.07;;;0.90;;
25327;SDS011;13279;51.300;12.394;2023-03-15T14:38:29;2.17;;;0.77;;
25327;SDS011;13279;51.300;12.394;2023-03-15T14:41:09;2.37;;;1.00;;
25327;SDS011;13279;51.300;12.394;2023-03-15T14:43:43;1.03;;;0.70;;
25327;SDS011;13279;51.300;12.394;2023-03-15T14:46:10;2.17;;;0.90;;
25327;SDS011;13279;51.300;12.394;2023-03-15T14:48:38;1.20;;;1.00;;
25327;SDS011;13279;51.300;12.394;2023-03-15T14:51:08;1.00;;;0.77;;
25327;SDS011;13279;51.300;12.394;2023-03-15T14:53:41;8.10;;;1.10;;
25327;SDS011;13279;51.300;12.394;2023-03-15T14:56:12;3.70;;;1.20;;
25327;SDS011;13279;51.300;12.394;2023-03-15T14:58:40;2.97;;;1.30;;
25327;SDS011;13279;51.300;12.394;2023-03-15T15:01:09;4.23;;;1.20;;
25327;SDS011;13279;51.300;12.394;2023-03-15T15:03:52;1.50;;;0.90;;
25327;SDS011;13279;51.300;12.394;2023-03-15T15:06:25;2.23;;;1.07;;
25327;SDS011;13279;51.300;12.394;2023-03-15T15:09:02;2.30;;;1.23;;